sensor_id;sensor_type;location;lat;lon;timestamp;P1;durP1;ratioP1;P2;durP2;ratioP2
43861;SDS011;29510;52.140;5.034;2023-07-29T00:03:41;2.92;;;1.42;;
43861;SDS011;29510;52.140;5.034;2023-07-29T00:13:42;2.83;;;1.75;;
43861;SDS011;29510;52.140;5.034;2023-07-29T00:23:43;3.75;;;1.55;;
43861;SDS011;29510;52.140;5.034;2023-07-29T00:33:45;3.58;;;1.67;;
43861;SDS011;29510;52.140;5.034;2023-07-29T00:43:46;4.22;;;1.52;;
43861;SDS011;29510;52.140;5.034;2023-07-29T00:53:47;5.13;;;1.65;;
43861;SDS011;29510;52.140;5.034;2023-07-29T01:03:48;3.53;;;2.00;;
43861;SDS011;29510;52.140;5.034;2023-07-29T01:23:57;4.13;;;2.10;;
43861;SDS011;29510;52.140;5.034;2023-07-29T01:34:02;5.05;;;2.90;;
43861;SDS011;29510;52.140;5.034;2023-07-29T01:44:10;5.82;;;2.97;;
43861;SDS011;29510;52.140;5.034;2023-07-29T01:54:12;7.05;;;3.35;;
43861;SDS011;29510;52.140;5.034;2023-07-29T02:04:13;6.78;;;3.67;;
43861;SDS011;29510;52.140;5.034;2023-07-29T02:14:14;6.70;;;3.80;;
43861;SDS011;29510;52.140;5.034;2023-07-29T02:24:15;7.05;;;3.05;;
43861;SDS011;29510;52.140;5.034;2023-07-29T02:34:16;7.78;;;3.50;;
43861;SDS011;29510;52.140;5.034;2023-07-29T02:44:18;6.68;;;2.83;;
43861;SDS011;29510;52.140;5.034;2023-07-29T02:54:20;7.53;;;3.20;;
43861;SDS011;29510;52.140;5.034;2023-07-29T03:04:21;5.65;;;2.88;;
43861;SDS011;29510;52.140;5.034;2023-07-29T03:14:23;7.35;;;3.42;;
43861;SDS011;29510;52.140;5.034;2023-07-29T03:24:24;4.68;;;2.55;;
43861;SDS011;29510;52.140;5.034;2023-07-29T03:34:25;4.25;;;2.70;;
43861;SDS011;29510;52.140;5.034;2023-07-29T03:44:26;5.57;;;2.55;;
43861;SDS011;29510;52.140;5.034;2023-07-29T03:54:27;5.15;;;2.90;;
43861;SDS011;29510;52.140;5.034;2023-07-29T04:04:28;6.00;;;2.63;;
43861;SDS011;29510;52.140;5.034;2023-07-29T04:14:29;8.43;;;2.80;;
43861;SDS011;29510;52.140;5.034;2023-07-29T04:24:30;5.97;;;2.33;;
43861;SDS011;29510;52.140;5.034;2023-07-29T04:34:31;3.80;;;2.45;;
43861;SDS011;29510;52.140;5.034;2023-07-29T04:44:33;6.30;;;2.90;;
43861;SDS011;29510;52.140;5.034;2023-07-29T04:54:34;4.40;;;2.83;;
43861;SDS011;29510;52.140;5.034;2023-07-29T05:04:35;5.38;;;2.83;;
43861;SDS011;29510;52.140;5.034;2023-07-29T05:14:36;7.35;;;3.55;;
43861;SDS011;29510;52.140;5.034;2023-07-29T05:24:37;7.82;;;3.88;;
43861;SDS011;29510;52.140;5.034;2023-07-29T05:34:38;7.13;;;3.78;;
43861;SDS011;29510;52.140;5.034;2023-07-29T05:44:39;11.52;;;4.78;;
43861;SDS011;29510;52.140;5.034;2023-07-29T05:54:40;8.27;;;4.15;;
43861;SDS011;29510;52.140;5.034;2023-07-29T06:04:43;7.32;;;3.85;;
43861;SDS011;29510;52.140;5.034;2023-07-29T06:14:44;7.28;;;4.65;;
43861;SDS011;29510;52.140;5.034;2023-07-29T06:24:45;8.38;;;4.80;;
43861;SDS011;29510;52.140;5.034;2023-07-29T06:34:46;9.48;;;4.88;;
43861;SDS011;29510;52.140;5.034;2023-07-29T06:44:47;7.68;;;4.78;;
43861;SDS011;29510;52.140;5.034;2023-07-29T06:54:48;8.32;;;5.05;;
43861;SDS011;29510;52.140;5.034;2023-07-29T07:04:49;8.50;;;5.47;;
43861;SDS011;29510;52.140;5.034;2023-07-29T07:14:50;8.30;;;5.40;;
43861;SDS011;29510;52.140;5.034;2023-07-29T07:24:51;8.85;;;5.00;;
43861;SDS011;29510;52.140;5.034;2023-07-29T07:34:52;6.35;;;4.35;;
43861;SDS011;29510;52.140;5.034;2023-07-29T07:44:53;7.03;;;4.70;;
43861;SDS011;29510;52.140;5.034;2023-07-29T07:54:54;6.32;;;4.30;;
43861;SDS011;29510;52.140;5.034;2023-07-29T08:04:55;5.60;;;4.38;;
43861;SDS011;29510;52.140;5.034;2023-07-29T08:14:56;5.93;;;3.30;;
43861;SDS011;29510;52.140;5.034;2023-07-29T08:24:57;6.43;;;2.22;;
43861;SDS011;29510;52.140;5.034;2023-07-29T08:34:58;3.97;;;2.20;;
43861;SDS011;29510;52.140;5.034;2023-07-29T08:45:06;6.32;;;2.90;;
43861;SDS011;29510;52.140;5.034;2023-07-29T08:55:11;4.75;;;2.42;;
43861;SDS011;29510;52.140;5.034;2023-07-29T09:05:12;3.67;;;2.10;;
43861;SDS011;29510;52.140;5.034;2023-07-29T09:15:15;5.20;;;2.55;;
43861;SDS011;29510;52.140;5.034;2023-07-29T09:25:30;3.40;;;2.38;;
43861;SDS011;29510;52.140;5.034;2023-07-29T09:35:32;4.75;;;3.03;;
43861;SDS011;29510;52.140;5.034;2023-07-29T09:45:34;5.57;;;3.05;;
43861;SDS011;29510;52.140;5.034;2023-07-29T09:55:36;4.90;;;2.33;;
43861;SDS011;29510;52.140;5.034;2023-07-29T10:05:37;5.40;;;2.58;;
43861;SDS011;29510;52.140;5.034;2023-07-29T10:15:39;4.25;;;2.40;;
43861;SDS011;29510;52.140;5.034;2023-07-29T10:25:43;7.90;;;3.92;;
43861;SDS011;29510;52.140;5.034;2023-07-29T10:35:50;6.05;;;4.10;;
43861;SDS011;29510;52.140;5.034;2023-07-29T10:45:52;8.02;;;5.47;;
43861;SDS011;29510;52.140;5.034;2023-07-29T10:55:53;6.25;;;4.45;;
43861;SDS011;29510;52.140;5.034;2023-07-29T11:05:56;4.90;;;2.70;;
43861;SDS011;29510;52.140;5.034;2023-07-29T11:16:05;2.65;;;1.33;;
43861;SDS011;29510;52.140;5.034;2023-07-29T11:26:06;3.53;;;1.38;;
43861;SDS011;29510;52.140;5.034;2023-07-29T11:36:16;2.80;;;1.27;;
43861;SDS011;29510;52.140;5.034;2023-07-29T11:46:20;3.40;;;1.60;;
43861;SDS011;29510;52.140;5.034;2023-07-29T11:56:22;3.28;;;1.98;;
43861;SDS011;29510;52.140;5.034;2023-07-29T12:06:24;2.85;;;1.90;;
43861;SDS011;29510;52.140;5.034;2023-07-29T12:16:25;3.67;;;1.98;;
43861;SDS011;29510;52.140;5.034;2023-07-29T12:26:27;2.30;;;1.38;;
43861;SDS011;29510;52.140;5.034;2023-07-29T12:36:44;3.65;;;2.10;;
43861;SDS011;29510;52.140;5.034;2023-07-29T12:46:50;2.78;;;2.20;;
43861;SDS011;29510;52.140;5.034;2023-07-29T12:56:52;3.33;;;2.22;;
43861;SDS011;29510;52.140;5.034;2023-07-29T13:06:53;3.92;;;2.58;;
43861;SDS011;29510;52.140;5.034;2023-07-29T13:16:54;4.90;;;2.83;;
43861;SDS011;29510;52.140;5.034;2023-07-29T13:26:55;5.15;;;2.85;;
43861;SDS011;29510;52.140;5.034;2023-07-29T13:36:56;3.38;;;2.60;;
43861;SDS011;29510;52.140;5.034;2023-07-29T13:46:57;4.35;;;2.50;;
43861;SDS011;29510;52.140;5.034;2023-07-29T13:56:58;3.05;;;1.90;;
43861;SDS011;29510;52.140;5.034;2023-07-29T14:06:59;4.20;;;1.70;;
43861;SDS011;29510;52.140;5.034;2023-07-29T14:17:01;4.05;;;1.40;;
43861;SDS011;29510;52.140;5.034;2023-07-29T14:27:02;1.75;;;0.90;;
43861;SDS011;29510;52.140;5.034;2023-07-29T14:37:03;2.58;;;0.82;;
43861;SDS011;29510;52.140;5.034;2023-07-29T14:47:05;3.58;;;1.10;;
43861;SDS011;29510;52.140;5.034;2023-07-29T14:57:09;1.95;;;0.90;;
43861;SDS011;29510;52.140;5.034;2023-07-29T15:07:10;2.15;;;0.80;;
43861;SDS011;29510;52.140;5.034;2023-07-29T15:17:11;2.00;;;0.98;;
43861;SDS011;29510;52.140;5.034;2023-07-29T15:27:12;2.88;;;1.20;;
43861;SDS011;29510;52.140;5.034;2023-07-29T15:37:13;2.67;;;1.05;;
43861;SDS011;29510;52.140;5.034;2023-07-29T15:47:15;2.83;;;1.00;;
43861;SDS011;29510;52.140;5.034;2023-07-29T15:57:19;2.47;;;1.10;;
43861;SDS011;29510;52.140;5.034;2023-07-29T16:07:20;3.47;;;1.40;;
43861;SDS011;29510;52.140;5.034;2023-07-29T16:17:21;2.83;;;1.10;;
43861;SDS011;29510;52.140;5.034;2023-07-29T16:27:22;2.58;;;1.30;;
43861;SDS011;29510;52.140;5.034;2023-07-29T16:37:23;3.60;;;1.50;;
43861;SDS011;29510;52.140;5.034;2023-07-29T16:47:24;2.60;;;1.10;;
43861;SDS011;29510;52.140;5.034;2023-07-29T16:57:26;2.90;;;1.02;;
43861;SDS011;29510;52.140;5.034;2023-07-29T17:07:27;3.10;;;1.35;;
43861;SDS011;29510;52.140;5.034;2023-07-29T17:17:28;5.25;;;1.55;;
43861;SDS011;29510;52.140;5.034;2023-07-29T17:27:30;3.40;;;1.58;;
43861;SDS011;29510;52.140;5.034;2023-07-29T17:37:31;6.90;;;1.98;;
43861;SDS011;29510;52.140;5.034;2023-07-29T17:47:32;6.20;;;2.20;;
43861;SDS011;29510;52.140;5.034;2023-07-29T17:57:33;6.22;;;1.90;;
43861;SDS011;29510;52.140;5.034;2023-07-29T18:07:34;5.88;;;1.80;;
43861;SDS011;29510;52.140;5.034;2023-07-29T18:17:35;8.65;;;2.10;;
43861;SDS011;29510;52.140;5.034;2023-07-29T18:27:36;10.40;;;1.95;;
43861;SDS011;29510;52.140;5.034;2023-07-29T18:37:38;8.20;;;2.15;;
43861;SDS011;29510;52.140;5.034;2023-07-29T18:47:39;3.78;;;1.90;;
43861;SDS011;29510;52.140;5.034;2023-07-29T18:57:40;7.72;;;2.28;;
43861;SDS011;29510;52.140;5.034;2023-07-29T19:07:41;7.45;;;2.25;;
43861;SDS011;29510;52.140;5.034;2023-07-29T19:17:42;7.47;;;2.45;;
43861;SDS011;29510;52.140;5.034;2023-07-29T19:27:43;9.07;;;2.50;;
43861;SDS011;29510;52.140;5.034;2023-07-29T19:37:44;6.68;;;1.95;;
43861;SDS011;29510;52.140;5.034;2023-07-29T19:47:45;7.15;;;2.85;;
43861;SDS011;29510;52.140;5.034;2023-07-29T19:57:48;8.45;;;2.38;;
43861;SDS011;29510;52.140;5.034;2023-07-29T20:07:49;10.75;;;2.65;;
43861;SDS011;29510;52.140;5.034;2023-07-29T20:17:50;10.43;;;3.05;;
43861;SDS011;29510;52.140;5.034;2023-07-29T20:27:51;9.07;;;2.38;;
43861;SDS011;29510;52.140;5.034;2023-07-29T20:37:52;8.75;;;2.53;;
43861;SDS011;29510;52.140;5.034;2023-07-29T20:47:54;10.20;;;2.60;;
43861;SDS011;29510;52.140;5.034;2023-07-29T20:57:55;9.43;;;2.42;;
43861;SDS011;29510;52.140;5.034;2023-07-29T21:07:56;8.27;;;2.35;;
43861;SDS011;29510;52.140;5.034;2023-07-29T21:17:57;7.57;;;2.20;;
43861;SDS011;29510;52.140;5.034;2023-07-29T21:27:58;11.77;;;2.50;;
43861;SDS011;29510;52.140;5.034;2023-07-29T21:37:59;11.20;;;1.88;;
43861;SDS011;29510;52.140;5.034;2023-07-29T21:48:00;5.75;;;1.52;;
43861;SDS011;29510;52.140;5.034;2023-07-29T21:58:01;8.55;;;1.90;;
43861;SDS011;29510;52.140;5.034;2023-07-29T22:08:02;9.93;;;1.92;;
43861;SDS011;29510;52.140;5.034;2023-07-29T22:18:04;8.80;;;1.90;;
43861;SDS011;29510;52.140;5.034;2023-07-29T22:28:05;13.18;;;2.33;;
43861;SDS011;29510;52.140;5.034;2023-07-29T22:38:06;9.38;;;1.95;;
43861;SDS011;29510;52.140;5.034;2023-07-29T22:48:07;8.95;;;2.10;;
43861;SDS011;29510;52.140;5.034;2023-07-29T22:58:09;9.02;;;1.80;;
43861;SDS011;29510;52.140;5.034;2023-07-29T23:08:10;7.13;;;2.08;;
43861;SDS011;29510;52.140;5.034;2023-07-29T23:18:11;9.07;;;2.20;;
43861;SDS011;29510;52.140;5.034;2023-07-29T23:28:12;11.60;;;3.63;;
43861;SDS011;29510;52.140;5.034;2023-07-29T23:38:13;10.65;;;1.77;;
43861;SDS011;29510;52.140;5.034;2023-07-29T23:48:21;7.47;;;1.75;;
43861;SDS011;29510;52.140;5.034;2023-07-29T23:58:22;7.13;;;2.50;;
